Time;durP1;ratioP1;P1;durP2;ratioP2;P2;SDS_P1;SDS_P2;PMS_P1;PMS_P2;Temp;Humidity;BMP_temperature;BMP_pressure;BME280_temperature;BME280_humidity;BME280_pressure;Samples;Min_cycle;Max_cycle;Signal;HPM_P1;HPM_P2
2021/09/10 00:01:18;;;;;;;0.85;0.30;;;27.00;55.50;;;;;;5046545;28;20124;-51
2021/09/10 00:03:46;;;;;;;2.15;0.10;;;27.00;55.70;;;;;;5046895;28;20033;-52
2021/09/10 00:06:13;;;;;;;0.10;0.10;;;26.90;55.90;;;;;;5039854;28;20159;-50
2021/09/10 00:08:40;;;;;;;1.67;0.10;;;26.80;56.00;;;;;;5044483;28;20041;-49
2021/09/10 00:11:08;;;;;;;0.30;0.10;;;26.80;56.20;;;;;;5046924;28;20497;-55
2021/09/10 00:13:35;;;;;;;2.88;0.20;;;26.70;56.30;;;;;;5046381;28;20041;-53
2021/09/10 00:16:02;;;;;;;0.20;0.10;;;26.60;56.40;;;;;;5029298;28;20037;-53
2021/09/10 00:18:29;;;;;;;0.20;0.20;;;26.60;56.60;;;;;;5028146;28;20050;-49
2021/09/10 00:20:57;;;;;;;0.93;0.20;;;26.60;56.80;;;;;;5033156;28;20096;-47
2021/09/10 00:23:24;;;;;;;1.75;0.10;;;26.50;56.90;;;;;;5036077;28;20049;-51
2021/09/10 00:25:51;;;;;;;0.73;0.10;;;26.50;57.00;;;;;;5056002;28;20140;-48
2021/09/10 00:28:23;;;;;;;0.40;0.20;;;26.40;57.10;;;;;;5039381;28;20152;-50
2021/09/10 00:30:50;;;;;;;3.55;0.88;;;26.40;57.80;;;;;;5029307;28;20117;-54
2021/09/10 00:33:17;;;;;;;1.48;0.20;;;26.30;57.30;;;;;;5031162;28;20050;-52
2021/09/10 00:35:44;;;;;;;2.30;0.43;;;26.30;57.50;;;;;;5029147;28;20133;-52
2021/09/10 00:38:13;;;;;;;2.40;0.10;;;26.20;57.60;;;;;;5029630;28;20403;-50
2021/09/10 00:40:40;;;;;;;4.90;1.13;;;26.20;57.70;;;;;;5038453;28;20094;-52
2021/09/10 00:43:07;;;;;;;0.40;0.20;;;26.20;57.80;;;;;;5028474;28;20045;-52
2021/09/10 00:45:34;;;;;;;0.95;0.10;;;26.10;57.90;;;;;;5048017;28;20128;-54
2021/09/10 00:48:01;;;;;;;1.67;0.10;;;26.10;58.00;;;;;;5034154;28;20092;-50
2021/09/10 00:50:31;;;;;;;1.55;0.20;;;26.10;58.10;;;;;;5031330;28;20061;-52
2021/09/10 00:52:58;;;;;;;1.67;0.10;;;26.00;58.20;;;;;;5037893;28;20044;-55
2021/09/10 00:55:27;;;;;;;0.52;0.10;;;26.00;58.30;;;;;;5045778;28;20037;-54
2021/09/10 00:57:54;;;;;;;0.50;0.10;;;26.00;58.40;;;;;;5031332;28;20045;-53
2021/09/10 01:00:21;;;;;;;1.67;0.10;;;25.90;58.40;;;;;;5036250;28;20450;-54
2021/09/10 01:02:49;;;;;;;0.98;0.10;;;25.90;58.60;;;;;;5030897;28;20216;-53
2021/09/10 01:05:17;;;;;;;1.45;0.10;;;25.90;58.60;;;;;;5031086;28;20112;-53
2021/09/10 01:07:44;;;;;;;1.95;0.13;;;25.80;58.70;;;;;;5054436;28;20037;-52
2021/09/10 01:10:12;;;;;;;0.17;0.10;;;25.80;58.70;;;;;;5028770;28;20564;-54
2021/09/10 01:12:41;;;;;;;0.15;0.10;;;25.80;58.80;;;;;;5030428;28;20589;-47
2021/09/10 01:15:09;;;;;;;2.85;0.20;;;25.80;58.90;;;;;;5030829;28;20049;-52
2021/09/10 01:17:38;;;;;;;0.57;0.10;;;25.70;59.00;;;;;;5042791;28;20064;-54
2021/09/10 01:20:07;;;;;;;4.85;0.68;;;25.70;59.00;;;;;;5046507;28;20061;-53
2021/09/10 01:22:35;;;;;;;0.60;0.15;;;25.70;59.10;;;;;;5030975;28;20052;-57
2021/09/10 01:25:12;;;;;;;0.55;0.40;;;25.70;59.20;;;;;;5052823;28;20028;-54
2021/09/10 01:27:41;;;;;;;0.90;0.10;;;25.60;59.20;;;;;;5032963;28;20056;-49
2021/09/10 01:30:09;;;;;;;1.15;0.10;;;25.60;59.30;;;;;;5029171;28;20051;-53
2021/09/10 01:32:37;;;;;;;1.73;0.10;;;25.60;59.40;;;;;;5030671;28;20135;-52
2021/09/10 01:35:05;;;;;;;0.98;0.10;;;25.50;59.40;;;;;;5051652;28;20036;-55
2021/09/10 01:37:32;;;;;;;1.85;0.45;;;25.50;59.50;;;;;;5027174;28;20069;-52
2021/09/10 01:39:59;;;;;;;1.45;0.10;;;25.50;59.60;;;;;;5032249;28;20153;-53
2021/09/10 01:42:27;;;;;;;0.85;0.20;;;25.50;59.70;;;;;;5044693;28;20052;-51
2021/09/10 01:44:55;;;;;;;1.27;0.10;;;25.50;59.70;;;;;;5040844;28;20041;-49
2021/09/10 01:47:22;;;;;;;0.75;0.13;;;25.40;59.70;;;;;;5031455;28;20088;-49
2021/09/10 01:49:49;;;;;;;0.20;0.17;;;25.50;59.80;;;;;;5052669;28;20106;-52
2021/09/10 01:52:16;;;;;;;2.15;0.85;;;25.40;59.80;;;;;;5051258;28;20080;-51
2021/09/10 01:54:44;;;;;;;2.50;0.20;;;25.40;59.80;;;;;;5033351;28;20049;-49
2021/09/10 01:57:11;;;;;;;0.50;0.20;;;25.30;59.80;;;;;;5036275;28;20037;-51
2021/09/10 01:59:43;;;;;;;1.02;0.10;;;25.30;59.90;;;;;;5033502;28;20057;-53
2021/09/10 02:02:10;;;;;;;1.85;0.10;;;25.30;60.00;;;;;;5033748;28;20502;-53
2021/09/10 02:04:37;;;;;;;1.90;0.15;;;25.30;60.00;;;;;;5052456;28;20767;-50
2021/09/10 02:07:05;;;;;;;1.70;1.55;;;25.30;60.10;;;;;;5051954;28;20163;-49
2021/09/10 02:09:33;;;;;;;0.70;0.10;;;25.20;60.10;;;;;;5048354;28;20513;-50
2021/09/10 02:12:00;;;;;;;2.65;0.10;;;25.30;60.20;;;;;;5040561;28;20533;-45
2021/09/10 02:14:27;;;;;;;1.65;0.45;;;25.30;60.30;;;;;;5040647;28;20047;-48
2021/09/10 02:16:56;;;;;;;1.20;0.20;;;25.20;60.30;;;;;;5056034;28;20046;-52
2021/09/10 02:19:23;;;;;;;2.63;0.10;;;25.20;60.30;;;;;;5032352;28;20158;-51
2021/09/10 02:21:50;;;;;;;1.88;0.47;;;25.20;60.40;;;;;;5052232;28;20041;-52
2021/09/10 02:24:18;;;;;;;1.05;0.52;;;25.20;60.40;;;;;;5035684;28;20541;-49
2021/09/10 02:26:45;;;;;;;1.05;0.20;;;25.20;60.50;;;;;;5045486;28;20049;-53
2021/09/10 02:29:12;;;;;;;2.05;0.10;;;25.20;60.50;;;;;;5035667;28;20041;-51
2021/09/10 02:31:40;;;;;;;1.48;0.20;;;25.10;60.50;;;;;;5033355;28;20416;-46
2021/09/10 02:34:09;;;;;;;0.60;0.10;;;25.10;60.60;;;;;;5042819;28;20562;-50
2021/09/10 02:36:36;;;;;;;0.90;0.10;;;25.10;60.60;;;;;;5030497;28;20485;-54
2021/09/10 02:39:05;;;;;;;1.25;0.20;;;25.10;60.60;;;;;;5042663;28;20063;-54
2021/09/10 02:41:32;;;;;;;0.10;0.10;;;25.10;60.70;;;;;;5041751;28;20038;-51
2021/09/10 02:43:59;;;;;;;2.38;0.20;;;25.10;60.80;;;;;;5033196;28;20046;-51
2021/09/10 02:46:26;;;;;;;2.28;0.10;;;25.00;60.80;;;;;;5032367;28;20493;-48
2021/09/10 02:48:53;;;;;;;0.73;0.10;;;25.00;60.80;;;;;;5031016;28;20144;-55
2021/09/10 02:51:21;;;;;;;1.63;0.32;;;25.00;60.80;;;;;;5046163;28;20515;-48
2021/09/10 02:53:50;;;;;;;1.08;0.10;;;25.00;60.90;;;;;;5041883;28;20513;-50
2021/09/10 02:56:18;;;;;;;2.53;0.60;;;25.00;60.90;;;;;;5057161;28;20044;-53
2021/09/10 02:58:46;;;;;;;0.40;0.10;;;25.00;61.00;;;;;;5046483;28;20033;-49
2021/09/10 03:01:13;;;;;;;1.35;0.10;;;24.90;61.00;;;;;;5045724;28;20076;-48
2021/09/10 03:03:40;;;;;;;0.90;0.30;;;24.90;61.10;;;;;;5033868;28;20038;-51
2021/09/10 03:06:08;;;;;;;1.85;0.68;;;25.00;61.10;;;;;;5035862;28;20429;-48
2021/09/10 03:08:36;;;;;;;0.73;0.10;;;24.90;61.70;;;;;;5031841;28;20065;-44
2021/09/10 03:11:03;;;;;;;0.73;0.15;;;24.90;61.30;;;;;;5038043;28;20076;-51
2021/09/10 03:13:30;;;;;;;2.67;0.13;;;24.90;61.30;;;;;;5030822;28;20044;-48
2021/09/10 03:15:57;;;;;;;1.95;0.40;;;24.90;61.40;;;;;;5052357;28;20044;-45
2021/09/10 03:18:24;;;;;;;0.90;0.20;;;24.90;61.60;;;;;;5052691;28;20029;-46
2021/09/10 03:20:51;;;;;;;2.58;0.75;;;24.90;61.50;;;;;;5041703;28;20084;-50
2021/09/10 03:23:18;;;;;;;2.33;0.28;;;24.90;61.60;;;;;;5045868;28;20075;-45
2021/09/10 03:25:47;;;;;;;2.80;0.40;;;24.90;61.70;;;;;;5036184;28;20048;-47
2021/09/10 03:28:14;;;;;;;1.20;0.40;;;24.80;61.70;;;;;;5043312;28;20062;-46
2021/09/10 03:30:41;;;;;;;0.50;0.30;;;24.90;61.80;;;;;;5055302;28;20504;-47
2021/09/10 03:33:08;;;;;;;1.30;0.30;;;24.80;61.80;;;;;;5037114;28;20041;-53
2021/09/10 03:35:35;;;;;;;3.70;1.27;;;24.80;61.80;;;;;;5032199;28;20049;-49
2021/09/10 03:38:02;;;;;;;2.78;0.30;;;24.80;61.90;;;;;;5034944;28;20033;-50
2021/09/10 03:40:34;;;;;;;0.47;0.20;;;24.80;62.00;;;;;;5057501;28;20068;-54
2021/09/10 03:43:04;;;;;;;2.50;0.30;;;24.80;62.00;;;;;;5047296;28;20041;-51
2021/09/10 03:45:31;;;;;;;4.18;0.30;;;24.80;62.10;;;;;;5035587;28;20124;-48
2021/09/10 03:47:58;;;;;;;2.58;0.30;;;24.80;62.20;;;;;;5036368;28;20080;-49
2021/09/10 03:50:25;;;;;;;2.90;0.25;;;24.70;62.20;;;;;;5040217;28;20136;-50
2021/09/10 03:52:52;;;;;;;3.60;0.30;;;24.80;62.20;;;;;;5057112;28;20049;-51
2021/09/10 03:58:12;;;;;;;0.70;0.30;;;24.70;62.30;;;;;;4488980;23;20055;-62
2021/09/10 04:00:39;;;;;;;1.90;0.45;;;24.70;62.30;;;;;;4926021;29;20416;-61
2021/09/10 04:03:06;;;;;;;4.97;0.77;;;24.70;62.40;;;;;;4930610;29;20040;-61
2021/09/10 04:05:33;;;;;;;2.38;0.20;;;24.70;62.40;;;;;;4930198;29;20044;-61
2021/09/10 04:08:00;;;;;;;6.07;0.40;;;24.70;62.40;;;;;;4931622;29;20067;-62
2021/09/10 04:10:28;;;;;;;1.83;0.38;;;24.70;62.40;;;;;;4930468;29;20126;-62
2021/09/10 04:12:56;;;;;;;1.17;0.40;;;24.70;62.40;;;;;;4928918;29;20047;-62
2021/09/10 04:15:24;;;;;;;0.50;0.22;;;24.70;62.50;;;;;;4929608;29;20131;-61
2021/09/10 04:17:51;;;;;;;2.17;0.45;;;24.70;62.50;;;;;;4930223;29;20071;-59
2021/09/10 04:20:18;;;;;;;1.63;0.32;;;24.70;62.50;;;;;;4930650;29;20079;-60
2021/09/10 04:22:45;;;;;;;3.65;0.30;;;24.70;62.50;;;;;;4925673;29;20843;-59
2021/09/10 04:25:13;;;;;;;2.35;0.38;;;24.70;62.50;;;;;;4926168;29;20122;-61
2021/09/10 04:27:40;;;;;;;7.80;0.30;;;24.70;62.50;;;;;;4927015;29;20055;-61
2021/09/10 04:30:09;;;;;;;0.57;0.57;;;24.60;62.50;;;;;;4926995;29;20107;-62
2021/09/10 04:32:37;;;;;;;1.80;1.15;;;24.70;62.60;;;;;;4927256;29;20055;-60
2021/09/10 04:35:06;;;;;;;0.77;0.40;;;24.60;62.60;;;;;;4927707;29;21193;-60
2021/09/10 04:37:33;;;;;;;2.42;0.65;;;24.60;62.60;;;;;;4926487;29;20051;-60
2021/09/10 04:40:01;;;;;;;1.55;0.95;;;24.60;62.60;;;;;;4926261;29;20056;-60
2021/09/10 04:42:28;;;;;;;1.55;0.25;;;24.60;62.60;;;;;;4922864;29;20055;-60
2021/09/10 04:44:55;;;;;;;1.73;0.30;;;24.60;62.60;;;;;;4925992;29;20051;-60
2021/09/10 04:47:25;;;;;;;2.00;0.20;;;24.60;62.60;;;;;;4927199;29;20469;-61
2021/09/10 04:49:54;;;;;;;0.43;0.22;;;24.60;62.70;;;;;;4928387;29;20551;-60
2021/09/10 04:52:21;;;;;;;1.98;0.20;;;24.60;62.70;;;;;;4923674;29;20039;-60
2021/09/10 04:54:49;;;;;;;1.73;0.80;;;24.60;62.70;;;;;;4925311;29;20039;-60
2021/09/10 04:57:16;;;;;;;6.57;0.55;;;24.60;62.70;;;;;;4927379;29;20060;-60
2021/09/10 04:59:43;;;;;;;0.75;0.30;;;24.60;62.70;;;;;;4929693;29;20127;-61
2021/09/10 05:02:10;;;;;;;1.85;0.40;;;24.60;62.80;;;;;;4923461;29;20036;-60
2021/09/10 05:04:37;;;;;;;0.90;0.28;;;24.50;62.70;;;;;;4922141;29;20075;-60
2021/09/10 05:07:06;;;;;;;1.45;0.40;;;24.60;62.80;;;;;;4922093;29;20479;-60
2021/09/10 05:09:33;;;;;;;0.52;0.13;;;24.60;62.80;;;;;;4919645;29;20131;-60
2021/09/10 05:12:00;;;;;;;2.22;0.30;;;24.60;62.80;;;;;;4925702;29;20050;-60
2021/09/10 05:14:27;;;;;;;4.15;0.20;;;24.60;62.80;;;;;;4930361;29;20134;-61
2021/09/10 05:16:53;;;;;;;2.85;0.60;;;24.60;62.80;;;;;;4926376;29;20879;-60
2021/09/10 05:19:20;;;;;;;3.47;0.20;;;24.50;62.80;;;;;;4926658;29;20040;-60
2021/09/10 05:21:47;;;;;;;1.20;0.22;;;24.60;62.80;;;;;;4929504;29;20063;-60
2021/09/10 05:24:16;;;;;;;4.78;0.45;;;24.50;62.80;;;;;;4933309;29;20075;-60
2021/09/10 05:26:43;;;;;;;1.98;0.40;;;24.50;62.80;;;;;;4922461;29;20032;-60
2021/09/10 05:29:10;;;;;;;0.60;0.40;;;24.50;62.80;;;;;;4923538;29;20120;-61
2021/09/10 05:31:37;;;;;;;2.65;0.95;;;24.50;62.80;;;;;;4931582;29;20044;-61
2021/09/10 05:34:04;;;;;;;2.47;0.30;;;24.50;62.80;;;;;;4933026;29;20122;-61
2021/09/10 05:36:31;;;;;;;4.60;0.30;;;24.50;62.80;;;;;;4933045;29;20035;-61
2021/09/10 05:38:58;;;;;;;3.03;0.40;;;24.50;62.80;;;;;;4920128;29;20051;-61
2021/09/10 05:41:26;;;;;;;1.05;0.47;;;24.50;62.80;;;;;;4933222;29;20052;-62
2021/09/10 05:43:54;;;;;;;0.70;0.28;;;24.50;62.80;;;;;;4929278;29;20054;-61
2021/09/10 05:46:21;;;;;;;0.63;0.40;;;24.50;62.80;;;;;;4932888;29;20047;-62
2021/09/10 05:48:48;;;;;;;3.88;0.75;;;24.50;62.80;;;;;;4932944;29;20040;-62
2021/09/10 05:51:15;;;;;;;3.35;0.40;;;24.50;62.90;;;;;;4932267;29;20385;-61
2021/09/10 05:53:42;;;;;;;2.65;0.40;;;24.50;62.90;;;;;;4932426;29;20122;-62
2021/09/10 05:56:10;;;;;;;2.63;0.70;;;24.50;62.90;;;;;;4931102;29;20094;-62
2021/09/10 05:58:39;;;;;;;7.75;1.15;;;24.50;62.90;;;;;;4932344;29;20055;-60
2021/09/10 06:01:06;;;;;;;2.75;0.30;;;24.50;62.90;;;;;;4932223;29;20051;-61
2021/09/10 06:03:33;;;;;;;3.53;0.70;;;24.50;62.90;;;;;;4932344;29;20047;-62
2021/09/10 06:06:00;;;;;;;1.20;0.50;;;24.50;62.90;;;;;;4931451;29;20822;-61
2021/09/10 06:08:28;;;;;;;2.50;0.40;;;24.50;62.90;;;;;;4931897;29;20066;-62
2021/09/10 06:10:55;;;;;;;4.68;0.85;;;24.40;62.90;;;;;;4933597;29;20059;-61
2021/09/10 06:13:22;;;;;;;1.60;0.63;;;24.40;62.90;;;;;;4932318;29;20048;-61
2021/09/10 06:15:51;;;;;;;0.40;0.40;;;24.50;62.90;;;;;;4932614;29;20031;-61
2021/09/10 06:18:18;;;;;;;2.35;0.20;;;24.50;62.90;;;;;;4932154;29;20408;-61
2021/09/10 06:20:46;;;;;;;1.58;0.32;;;24.50;63.00;;;;;;4932225;29;20510;-60
2021/09/10 06:23:13;;;;;;;6.90;1.73;;;24.50;63.00;;;;;;4929669;29;20051;-60
2021/09/10 06:25:40;;;;;;;0.68;0.30;;;24.40;63.00;;;;;;4932483;29;20501;-61
2021/09/10 06:28:09;;;;;;;2.42;0.47;;;24.40;63.00;;;;;;4931764;29;20051;-61
2021/09/10 06:30:37;;;;;;;2.42;0.43;;;24.40;63.00;;;;;;4931934;29;20063;-61
2021/09/10 06:33:05;;;;;;;2.22;0.22;;;24.40;63.00;;;;;;4931809;29;20078;-61
2021/09/10 06:35:33;;;;;;;1.30;0.20;;;24.40;63.60;;;;;;4920222;29;20853;-60
2021/09/10 06:38:00;;;;;;;1.50;0.68;;;24.50;63.10;;;;;;4932311;29;20499;-63
2021/09/10 06:40:28;;;;;;;1.38;0.28;;;24.40;63.10;;;;;;4930605;29;20051;-62
2021/09/10 06:42:55;;;;;;;2.55;0.25;;;24.50;63.40;;;;;;4926667;29;20039;-61
2021/09/10 06:45:23;;;;;;;8.10;0.32;;;24.50;63.60;;;;;;4923670;29;20044;-61
2021/09/10 06:47:50;;;;;;;6.70;0.20;;;24.60;63.70;;;;;;4920564;29;20178;-60
2021/09/10 06:50:19;;;;;;;3.58;0.43;;;24.70;63.70;;;;;;4920487;29;20044;-60
2021/09/10 06:52:46;;;;;;;1.50;0.30;;;24.80;63.60;;;;;;4921306;29;20046;-60
2021/09/10 06:55:14;;;;;;;2.13;0.22;;;24.90;63.60;;;;;;4924264;29;20032;-60
2021/09/10 06:57:41;;;;;;;0.70;0.25;;;25.00;63.40;;;;;;4922586;29;20075;-60
2021/09/10 07:00:10;;;;;;;1.00;0.30;;;25.00;63.20;;;;;;4923111;29;20035;-60
2021/09/10 07:02:37;;;;;;;1.48;0.20;;;25.10;63.10;;;;;;4919208;29;20111;-60
2021/09/10 07:05:05;;;;;;;2.33;0.30;;;25.20;63.00;;;;;;4920008;29;20828;-60
2021/09/10 07:07:34;;;;;;;0.88;0.20;;;25.30;62.90;;;;;;4921646;29;20366;-60
2021/09/10 07:10:01;;;;;;;3.42;0.63;;;25.40;62.80;;;;;;4922854;29;20135;-60
2021/09/10 07:12:28;;;;;;;2.95;0.65;;;25.40;62.70;;;;;;4921858;29;20540;-61
2021/09/10 07:14:56;;;;;;;3.40;0.30;;;25.50;62.60;;;;;;4920029;29;20135;-60
2021/09/10 07:17:23;;;;;;;3.13;0.57;;;25.60;62.50;;;;;;4921470;29;20118;-59
2021/09/10 07:19:50;;;;;;;1.13;0.10;;;25.60;62.40;;;;;;4917475;29;20449;-60
2021/09/10 07:22:18;;;;;;;1.75;0.43;;;25.70;62.30;;;;;;4929706;29;20723;-55
2021/09/10 07:24:46;;;;;;;3.08;0.63;;;25.80;62.40;;;;;;4929822;29;20047;-55
2021/09/10 07:27:14;;;;;;;1.75;0.30;;;25.80;62.30;;;;;;4930840;29;20044;-65
2021/09/10 07:29:41;;;;;;;4.47;0.30;;;25.90;62.40;;;;;;4926838;29;20046;-60
2021/09/10 07:32:08;;;;;;;5.35;0.50;;;25.90;62.30;;;;;;4923504;29;20131;-52
2021/09/10 07:34:36;;;;;;;1.63;0.40;;;26.00;62.30;;;;;;4930388;29;20441;-57
2021/09/10 07:37:03;;;;;;;1.90;0.43;;;26.10;62.10;;;;;;4921841;29;20048;-59
2021/09/10 07:39:31;;;;;;;0.65;0.40;;;26.10;61.90;;;;;;4917541;29;20127;-56
2021/09/10 07:42:00;;;;;;;2.47;0.52;;;26.20;61.90;;;;;;4929690;29;20115;-60
2021/09/10 07:44:27;;;;;;;2.90;0.30;;;26.20;62.00;;;;;;4930602;29;20051;-62
2021/09/10 07:46:55;;;;;;;2.15;0.13;;;26.30;61.90;;;;;;4931176;29;20058;-52
2021/09/10 07:49:23;;;;;;;2.63;0.70;;;26.40;62.00;;;;;;4929306;29;20512;-53
2021/09/10 07:51:51;;;;;;;1.55;0.88;;;26.40;61.90;;;;;;4928050;29;20654;-52
2021/09/10 07:54:19;;;;;;;3.63;0.20;;;26.60;61.90;;;;;;4925486;29;20050;-46
2021/09/10 07:56:46;;;;;;;4.15;0.50;;;26.70;61.90;;;;;;4924278;29;20048;-63
2021/09/10 07:59:15;;;;;;;3.33;0.30;;;26.80;61.80;;;;;;4926754;29;20047;-54
2021/09/10 08:01:42;;;;;;;5.43;0.30;;;26.90;61.60;;;;;;4928035;29;20056;-58
2021/09/10 08:04:09;;;;;;;0.82;0.20;;;27.00;61.40;;;;;;4928441;29;20468;-59
2021/09/10 08:06:37;;;;;;;1.15;0.20;;;27.10;61.10;;;;;;4929995;29;20075;-53
2021/09/10 08:09:05;;;;;;;3.70;0.43;;;27.20;60.90;;;;;;4929978;29;20126;-55
2021/09/10 08:11:33;;;;;;;0.40;0.20;;;27.30;60.70;;;;;;4929851;29;20044;-58
2021/09/10 08:14:02;;;;;;;1.65;0.20;;;27.40;60.40;;;;;;4930888;29;20055;-59
2021/09/10 08:16:30;;;;;;;1.85;0.10;;;27.60;60.20;;;;;;4929654;29;20539;-59
2021/09/10 08:18:57;;;;;;;1.48;0.82;;;27.70;59.90;;;;;;4929103;29;20036;-54
2021/09/10 08:21:25;;;;;;;3.95;0.68;;;27.80;59.70;;;;;;4924972;29;20059;-51
2021/09/10 08:23:52;;;;;;;0.50;0.17;;;27.90;59.30;;;;;;4923474;29;20040;-47
2021/09/10 08:26:19;;;;;;;1.92;0.65;;;28.00;59.00;;;;;;4930003;29;20044;-45
2021/09/10 08:28:46;;;;;;;0.20;0.10;;;28.10;58.60;;;;;;4927274;29;20500;-48
2021/09/10 08:31:15;;;;;;;1.40;0.30;;;28.30;58.40;;;;;;4926022;29;20122;-46
2021/09/10 08:33:44;;;;;;;0.50;0.10;;;28.40;58.00;;;;;;4929296;29;20043;-48
2021/09/10 08:36:11;;;;;;;3.13;1.10;;;28.50;57.60;;;;;;4929165;29;20788;-46
2021/09/10 08:38:38;;;;;;;0.43;0.10;;;28.60;57.20;;;;;;4929860;29;20040;-47
2021/09/10 08:41:05;;;;;;;0.30;0.30;;;28.80;56.90;;;;;;4927795;29;20074;-45
2021/09/10 08:43:33;;;;;;;0.20;0.20;;;28.90;56.50;;;;;;4929049;29;20551;-56
2021/09/10 08:46:00;;;;;;;1.17;0.40;;;29.00;56.20;;;;;;4926345;29;20044;-46
2021/09/10 08:48:28;;;;;;;0.63;0.20;;;29.20;55.90;;;;;;4929120;29;20041;-49
2021/09/10 08:50:57;;;;;;;0.43;0.10;;;29.30;55.50;;;;;;4930500;29;20043;-50
2021/09/10 08:53:24;;;;;;;0.30;0.10;;;29.40;55.20;;;;;;4926710;29;20052;-45
2021/09/10 08:55:51;;;;;;;0.28;0.25;;;29.50;55.00;;;;;;4934607;29;20044;-49
2021/09/10 08:58:19;;;;;;;2.92;0.10;;;29.60;54.70;;;;;;4932753;29;20138;-46
2021/09/10 09:00:47;;;;;;;2.00;0.10;;;29.70;54.30;;;;;;4933130;29;20114;-48
2021/09/10 09:03:14;;;;;;;3.42;0.10;;;29.80;54.10;;;;;;4924160;29;20047;-61
2021/09/10 09:05:42;;;;;;;2.38;0.32;;;29.80;53.80;;;;;;4926606;29;20053;-61
2021/09/10 09:08:13;;;;;;;1.23;0.15;;;29.90;53.60;;;;;;4928172;29;20126;-61
2021/09/10 09:10:59;;;;;;;0.60;0.10;;;30.00;53.40;;;;;;4929688;29;20071;-61
2021/09/10 09:13:28;;;;;;;2.38;0.10;;;30.10;53.20;;;;;;4924419;29;20040;-61
2021/09/10 09:16:15;;;;;;;0.68;0.10;;;30.10;53.10;;;;;;4929561;29;20102;-54
2021/09/10 09:18:44;;;;;;;3.50;0.28;;;30.10;52.90;;;;;;4933179;29;20091;-54
2021/09/10 09:21:13;;;;;;;5.18;1.05;;;30.10;52.70;;;;;;4932980;29;20039;-53
2021/09/10 09:23:41;;;;;;;4.78;0.30;;;30.20;52.60;;;;;;4932646;29;20091;-54
2021/09/10 09:26:19;;;;;;;3.20;0.10;;;30.30;52.50;;;;;;4925865;29;20183;-49
2021/09/10 09:28:47;;;;;;;2.92;0.60;;;30.30;52.20;;;;;;4928912;29;20103;-50
2021/09/10 09:31:19;;;;;;;3.05;0.20;;;30.40;52.10;;;;;;4932418;29;20116;-55
2021/09/10 09:33:47;;;;;;;3.50;0.20;;;30.40;51.90;;;;;;4926242;29;20040;-47
2021/09/10 09:36:17;;;;;;;0.28;0.20;;;30.50;51.80;;;;;;4926562;29;20566;-50
2021/09/10 09:38:46;;;;;;;1.77;0.30;;;30.60;51.70;;;;;;4926495;29;20127;-46
2021/09/10 09:41:16;;;;;;;1.88;0.10;;;30.60;51.40;;;;;;4930464;29;20083;-51
2021/09/10 09:43:44;;;;;;;0.90;0.20;;;30.70;51.20;;;;;;4931751;29;20515;-49
2021/09/10 09:46:13;;;;;;;2.17;0.20;;;30.80;51.10;;;;;;4931588;29;20040;-48
2021/09/10 09:48:42;;;;;;;1.33;0.10;;;30.80;50.90;;;;;;4930473;29;20048;-54
2021/09/10 09:51:10;;;;;;;0.77;0.57;;;30.90;50.80;;;;;;4929736;29;20122;-55
2021/09/10 09:53:39;;;;;;;1.25;0.10;;;30.90;50.60;;;;;;4932547;29;20043;-56
2021/09/10 09:56:09;;;;;;;0.85;0.10;;;31.00;50.90;;;;;;4933832;29;20632;-57
2021/09/10 09:58:37;;;;;;;0.40;0.40;;;31.00;50.40;;;;;;4932062;29;20060;-56
2021/09/10 10:01:06;;;;;;;1.15;0.55;;;31.10;50.30;;;;;;4932217;29;20092;-55
2021/09/10 10:03:33;;;;;;;0.57;0.50;;;31.10;50.10;;;;;;4932109;29;20051;-54
2021/09/10 10:06:15;;;;;;;1.60;1.00;;;31.10;49.90;;;;;;4932408;29;20043;-56
2021/09/10 10:08:50;;;;;;;1.85;0.35;;;31.20;49.80;;;;;;4932399;29;20043;-55
2021/09/10 10:11:22;;;;;;;1.98;0.63;;;31.30;49.70;;;;;;4931595;29;20075;-51
2021/09/10 10:13:57;;;;;;;1.00;0.13;;;31.30;49.60;;;;;;4932044;29;20055;-52
2021/09/10 10:16:39;;;;;;;0.13;0.10;;;31.30;49.40;;;;;;4926308;29;20048;-50
2021/09/10 10:19:09;;;;;;;0.25;0.10;;;31.40;49.30;;;;;;4932262;29;20043;-51
2021/09/10 10:21:52;;;;;;;0.32;0.20;;;31.40;49.80;;;;;;4931716;29;20424;-49
2021/09/10 10:24:46;;;;;;;0.30;0.20;;;31.40;49.10;;;;;;4921039;29;20087;-58
2021/09/10 10:27:39;;;;;;;1.13;0.30;;;31.40;49.00;;;;;;4931611;29;20063;-62
2021/09/10 10:30:09;;;;;;;2.15;0.40;;;31.40;48.90;;;;;;4922883;29;20054;-51
2021/09/10 10:32:38;;;;;;;0.10;0.10;;;31.50;48.90;;;;;;4919187;29;21924;-52
2021/09/10 10:35:23;;;;;;;2.75;0.28;;;31.50;48.80;;;;;;4929931;29;20050;-53
2021/09/10 10:37:52;;;;;;;0.77;0.10;;;31.60;48.70;;;;;;4932131;29;20099;-53
2021/09/10 10:40:39;;;;;;;0.50;0.20;;;31.60;48.60;;;;;;4926647;29;20032;-50
2021/09/10 10:43:11;;;;;;;1.48;0.35;;;31.60;48.40;;;;;;4928584;29;20062;-50
2021/09/10 10:46:02;;;;;;;2.85;0.45;;;31.60;48.20;;;;;;4931557;29;20448;-52
2021/09/10 10:48:49;;;;;;;2.70;0.30;;;31.60;48.10;;;;;;4924873;29;20135;-50
2021/09/10 10:51:50;;;;;;;0.50;0.20;;;31.70;48.10;;;;;;4925229;29;20040;-50
2021/09/10 10:54:18;;;;;;;1.38;0.10;;;31.70;48.00;;;;;;4923787;29;20127;-50
2021/09/10 10:56:50;;;;;;;0.43;0.10;;;31.70;47.90;;;;;;4924644;29;20058;-50
2021/09/10 10:59:31;;;;;;;0.38;0.13;;;31.70;47.90;;;;;;4923934;29;20059;-50
2021/09/10 11:02:34;;;;;;;0.57;0.10;;;31.70;47.80;;;;;;4923605;29;20408;-49
2021/09/10 11:05:20;;;;;;;0.10;0.10;;;31.70;47.70;;;;;;4852220;29;20045;-49
2021/09/10 11:07:47;;;;;;;0.40;0.40;;;31.70;47.60;;;;;;4865026;29;20041;-49
2021/09/10 11:10:18;;;;;;;0.13;0.10;;;31.70;47.60;;;;;;4864320;29;21081;-48
2021/09/10 11:12:46;;;;;;;1.55;0.30;;;31.70;47.50;;;;;;4864205;29;20146;-49
2021/09/10 11:15:26;;;;;;;0.30;0.10;;;31.70;47.30;;;;;;4862994;29;20037;-49
2021/09/10 11:17:58;;;;;;;0.90;0.90;;;31.70;47.20;;;;;;4864300;29;20581;-51
2021/09/10 11:20:27;;;;;;;0.47;0.20;;;31.60;47.10;;;;;;4863064;29;20172;-50
2021/09/10 11:22:54;;;;;;;0.63;0.30;;;31.60;47.30;;;;;;4847957;29;20055;-49
2021/09/10 11:25:22;;;;;;;1.45;0.10;;;31.60;47.50;;;;;;4863434;29;20074;-49
2021/09/10 11:27:49;;;;;;;0.68;0.17;;;31.50;47.80;;;;;;4853280;29;20382;-53
2021/09/10 11:30:18;;;;;;;0.10;0.10;;;31.60;48.10;;;;;;4864075;29;20048;-53
2021/09/10 11:32:45;;;;;;;2.20;0.10;;;31.50;48.00;;;;;;4862374;29;20051;-51
2021/09/10 11:35:20;;;;;;;3.78;0.25;;;31.50;48.00;;;;;;4876601;29;20051;-51
2021/09/10 11:37:53;;;;;;;0.55;0.43;;;31.50;48.00;;;;;;4927360;29;20046;-49
2021/09/10 11:40:39;;;;;;;0.55;0.10;;;31.50;48.10;;;;;;4925346;29;20063;-52
2021/09/10 11:43:08;;;;;;;2.40;0.20;;;31.50;48.00;;;;;;4922809;29;20536;-51
2021/09/10 11:45:41;;;;;;;0.60;0.15;;;31.50;48.10;;;;;;4920777;29;20036;-52
2021/09/10 11:48:12;;;;;;;0.40;0.10;;;31.50;48.10;;;;;;4922510;29;20051;-52
2021/09/10 11:50:48;;;;;;;0.50;0.10;;;31.50;48.10;;;;;;4923493;29;20608;-51
2021/09/10 11:53:19;;;;;;;1.15;0.10;;;31.50;48.80;;;;;;4928680;29;20036;-54
2021/09/10 11:55:55;;;;;;;1.65;0.20;;;31.50;48.20;;;;;;4930933;29;20107;-54
2021/09/10 11:58:32;;;;;;;1.00;0.57;;;31.50;48.30;;;;;;4928955;29;20052;-56
2021/09/10 12:01:20;;;;;;;1.38;0.75;;;31.60;48.40;;;;;;4923487;29;20497;-56
2021/09/10 12:03:52;;;;;;;0.82;0.10;;;31.60;48.40;;;;;;4921942;29;20051;-53
2021/09/10 12:06:21;;;;;;;1.13;0.40;;;31.60;48.50;;;;;;4921889;29;20121;-53
2021/09/10 12:09:13;;;;;;;1.08;0.10;;;31.70;48.50;;;;;;4923351;29;20039;-54
2021/09/10 12:12:04;;;;;;;1.08;0.10;;;31.70;48.40;;;;;;4929818;29;20039;-57
2021/09/10 12:14:37;;;;;;;0.75;0.10;;;31.70;48.40;;;;;;4918105;29;20039;-53
2021/09/10 12:17:08;;;;;;;1.05;0.20;;;31.80;48.60;;;;;;4931323;29;20476;-51
2021/09/10 12:20:05;;;;;;;0.30;0.22;;;31.80;48.50;;;;;;4930009;29;20058;-52
2021/09/10 12:22:39;;;;;;;0.20;0.10;;;31.90;48.50;;;;;;4928862;29;20579;-52
2021/09/10 12:25:25;;;;;;;0.52;0.20;;;32.00;48.60;;;;;;4926164;29;20040;-52
2021/09/10 12:27:55;;;;;;;0.20;0.10;;;32.10;48.70;;;;;;4930069;29;20512;-48
2021/09/10 12:30:24;;;;;;;0.25;0.20;;;32.10;48.60;;;;;;4930343;29;20114;-52
2021/09/10 12:32:52;;;;;;;1.73;0.10;;;32.20;48.70;;;;;;4930254;29;20077;-61
2021/09/10 12:35:21;;;;;;;1.75;0.20;;;32.20;48.60;;;;;;4922009;29;20055;-51
2021/09/10 12:37:55;;;;;;;0.30;0.20;;;32.30;48.60;;;;;;4930174;29;20044;-50
2021/09/10 12:40:22;;;;;;;0.82;0.20;;;32.40;48.60;;;;;;4929532;29;20138;-45
2021/09/10 12:42:51;;;;;;;0.20;0.10;;;32.40;48.50;;;;;;4929258;29;20052;-48
2021/09/10 12:45:21;;;;;;;0.28;0.10;;;32.40;48.40;;;;;;4929791;29;20040;-50
2021/09/10 12:47:50;;;;;;;0.38;0.30;;;32.40;48.10;;;;;;4929769;29;20473;-48
2021/09/10 12:50:21;;;;;;;11.18;1.88;;;32.50;48.20;;;;;;4927430;29;20122;-51
2021/09/10 12:52:51;;;;;;;2.10;0.20;;;32.50;48.10;;;;;;4927528;29;20742;-45
2021/09/10 12:55:19;;;;;;;0.65;0.20;;;32.50;47.80;;;;;;4928917;29;20048;-56
2021/09/10 12:57:48;;;;;;;0.45;0.20;;;32.60;47.70;;;;;;4929494;29;20052;-54
2021/09/10 13:00:17;;;;;;;0.20;0.20;;;32.50;47.60;;;;;;4918910;29;20457;-55
2021/09/10 13:02:45;;;;;;;0.30;0.20;;;32.60;47.70;;;;;;4930124;29;20048;-60